createdAt,value
2019-06-26T00:00:11.733Z,26.40
2019-06-26T00:02:41.128Z,26.30
2019-06-26T00:05:11.027Z,26.30
2019-06-26T00:07:40.332Z,26.30
2019-06-26T00:10:10.225Z,26.30
2019-06-26T00:12:39.566Z,26.30
2019-06-26T00:15:09.153Z,26.30
2019-06-26T00:17:39.241Z,26.30
2019-06-26T00:20:09.004Z,26.20
2019-06-26T00:22:38.472Z,26.20
2019-06-26T00:25:08.030Z,26.20
2019-06-26T00:27:37.399Z,26.20
2019-06-26T00:30:07.769Z,26.20
2019-06-26T00:32:37.071Z,26.10
2019-06-26T00:35:06.716Z,26.10
2019-06-26T00:37:36.019Z,26.10
2019-06-26T00:40:06.685Z,26.10
2019-06-26T00:42:36.151Z,26.10
2019-06-26T00:45:07.041Z,26.10
2019-06-26T00:47:36.409Z,26.00
2019-06-26T00:50:07.737Z,26.00
2019-06-26T00:52:37.194Z,26.00
2019-06-26T00:55:06.911Z,26.00
2019-06-26T00:57:36.307Z,25.90
2019-06-26T01:00:09.705Z,25.90
2019-06-26T01:02:39.546Z,25.90
2019-06-26T01:05:11.445Z,25.90
2019-06-26T01:07:40.831Z,25.80
2019-06-26T01:10:12.241Z,25.70
2019-06-26T01:12:41.607Z,25.60
2019-06-26T01:15:13.040Z,25.60
2019-06-26T01:17:42.381Z,25.60
2019-06-26T01:20:12.217Z,25.60
2019-06-26T01:22:41.532Z,25.60
2019-06-26T01:25:11.289Z,25.50
2019-06-26T01:27:40.656Z,25.50
2019-06-26T01:30:10.695Z,25.50
2019-06-26T01:32:40.011Z,25.40
2019-06-26T01:35:10.447Z,25.40
2019-06-26T01:37:39.788Z,25.30
2019-06-26T01:40:09.697Z,25.30
2019-06-26T01:42:40.052Z,25.20
2019-06-26T01:45:09.819Z,25.20
2019-06-26T01:47:39.196Z,25.20
2019-06-26T01:50:08.855Z,25.20
2019-06-26T01:52:38.192Z,25.20
2019-06-26T01:55:07.853Z,25.10
2019-06-26T01:57:37.174Z,25.10
2019-06-26T02:00:09.064Z,25.10
2019-06-26T02:02:38.705Z,25.10
2019-06-26T02:05:08.455Z,25.00
2019-06-26T02:07:37.756Z,25.00
2019-06-26T02:10:08.724Z,25.00
2019-06-26T02:12:38.045Z,24.90
2019-06-26T02:15:08.215Z,24.90
2019-06-26T02:17:37.529Z,24.80
2019-06-26T02:20:08.491Z,24.80
2019-06-26T02:22:37.906Z,24.80
2019-06-26T02:25:07.743Z,24.80
2019-06-26T02:27:37.080Z,24.80
2019-06-26T02:30:07.573Z,24.80
2019-06-26T02:32:37.984Z,24.70
2019-06-26T02:35:10.304Z,24.70
2019-06-26T02:37:38.955Z,24.60
2019-06-26T02:40:10.514Z,24.60
2019-06-26T02:42:40.103Z,24.50
2019-06-26T02:45:09.656Z,24.50
2019-06-26T02:47:38.991Z,24.50
2019-06-26T02:50:12.360Z,24.50
2019-06-26T02:52:41.686Z,24.40
2019-06-26T02:55:12.664Z,24.40
2019-06-26T02:57:42.036Z,24.30
2019-06-26T03:00:11.436Z,24.20
2019-06-26T03:02:40.746Z,24.20
2019-06-26T03:05:10.283Z,24.10
2019-06-26T03:07:39.585Z,24.00
2019-06-26T03:10:09.859Z,24.00
2019-06-26T03:12:40.245Z,24.00
2019-06-26T03:15:11.023Z,23.90
2019-06-26T03:17:54.238Z,23.80
2019-06-26T03:20:11.613Z,23.80
2019-06-26T03:22:40.907Z,23.80
2019-06-26T03:25:10.403Z,23.80
2019-06-26T03:27:39.723Z,23.70
2019-06-26T03:30:09.488Z,23.60
2019-06-26T03:32:38.939Z,23.60
2019-06-26T03:35:09.439Z,23.50
2019-06-26T03:37:38.764Z,23.50
2019-06-26T03:40:08.404Z,23.40
2019-06-26T03:42:37.733Z,23.40
2019-06-26T03:45:24.120Z,23.30
2019-06-26T03:47:38.800Z,23.40
2019-06-26T03:50:09.448Z,23.30
2019-06-26T03:52:38.768Z,23.30
2019-06-26T03:55:08.067Z,23.30
2019-06-26T03:57:37.585Z,23.30
2019-06-26T04:00:08.504Z,23.30
2019-06-26T04:02:37.923Z,23.30
2019-06-26T04:05:07.349Z,23.20
2019-06-26T04:07:36.674Z,23.20
2019-06-26T04:10:08.023Z,23.10
2019-06-26T04:12:37.353Z,23.10
2019-06-26T04:15:07.474Z,23.00
2019-06-26T04:17:36.809Z,23.00
2019-06-26T04:20:07.731Z,23.10
2019-06-26T04:22:37.062Z,23.00
2019-06-26T04:25:07.653Z,22.90
2019-06-26T04:27:36.990Z,22.90
2019-06-26T04:30:07.542Z,22.90
2019-06-26T04:32:36.887Z,22.90
2019-06-26T04:35:07.027Z,22.90
2019-06-26T04:37:36.603Z,22.90
2019-06-26T04:40:06.944Z,22.90
2019-06-26T04:42:36.271Z,22.90
2019-06-26T04:45:09.182Z,22.90
2019-06-26T04:47:38.478Z,22.80
2019-06-26T04:50:09.749Z,22.80
2019-06-26T04:52:39.072Z,22.80
2019-06-26T04:55:09.223Z,22.70
2019-06-26T04:57:38.620Z,22.70
2019-06-26T05:00:08.748Z,22.70
2019-06-26T05:02:38.059Z,22.80
2019-06-26T05:05:08.131Z,22.80
2019-06-26T05:07:37.435Z,22.80
2019-06-26T05:10:08.439Z,22.70
2019-06-26T05:12:37.762Z,22.70
2019-06-26T05:15:08.014Z,22.70
2019-06-26T05:17:37.688Z,22.60
2019-06-26T05:20:08.281Z,22.60
2019-06-26T05:22:38.861Z,22.70
2019-06-26T05:25:09.071Z,22.60
2019-06-26T05:27:38.469Z,22.60
2019-06-26T05:30:09.302Z,22.60
2019-06-26T05:32:38.622Z,22.60
2019-06-26T05:35:08.473Z,22.60
2019-06-26T05:37:37.816Z,22.60
2019-06-26T05:40:11.996Z,22.60
2019-06-26T05:42:41.321Z,22.50
2019-06-26T05:45:11.390Z,22.60
2019-06-26T05:47:40.783Z,22.60
2019-06-26T05:50:11.108Z,22.60
2019-06-26T05:52:42.834Z,22.50
2019-06-26T05:55:12.367Z,22.50
2019-06-26T05:57:42.223Z,22.60
2019-06-26T06:00:12.628Z,22.70
2019-06-26T06:02:41.948Z,22.60
2019-06-26T06:05:12.903Z,22.60
2019-06-26T06:07:42.238Z,22.70
2019-06-26T06:10:12.371Z,22.70
2019-06-26T06:12:41.811Z,22.80
2019-06-26T06:15:11.760Z,22.80
2019-06-26T06:17:41.114Z,22.90
2019-06-26T06:20:12.197Z,22.90
2019-06-26T06:22:41.560Z,22.90
2019-06-26T06:25:11.987Z,22.90
2019-06-26T06:27:41.304Z,22.80
2019-06-26T06:30:11.158Z,22.80
2019-06-26T06:32:40.558Z,22.90
2019-06-26T06:35:10.166Z,22.90
2019-06-26T06:37:39.483Z,22.90
2019-06-26T06:40:09.443Z,23.00
2019-06-26T06:42:38.773Z,22.90
2019-06-26T06:45:08.716Z,22.90
2019-06-26T06:47:38.046Z,22.90
2019-06-26T06:50:07.610Z,22.90
2019-06-26T06:52:36.951Z,23.00
2019-06-26T06:55:07.270Z,23.10
2019-06-26T06:57:36.826Z,23.10
2019-06-26T07:00:07.302Z,23.10
2019-06-26T07:02:36.719Z,23.10
2019-06-26T07:05:07.625Z,23.20
2019-06-26T07:07:37.958Z,23.20
2019-06-26T07:10:07.512Z,23.20
2019-06-26T07:12:36.834Z,23.30
2019-06-26T07:15:10.273Z,23.30
2019-06-26T07:17:39.679Z,23.40
2019-06-26T07:20:09.562Z,23.40
2019-06-26T07:22:38.924Z,23.50
2019-06-26T07:25:08.482Z,23.50
2019-06-26T07:27:37.813Z,23.50
2019-06-26T07:30:08.573Z,23.60
2019-06-26T07:32:37.875Z,23.60
2019-06-26T07:35:07.783Z,23.70
2019-06-26T07:37:37.085Z,23.70
2019-06-26T07:40:07.540Z,23.70
2019-06-26T07:42:36.890Z,23.70
2019-06-26T07:45:06.942Z,23.70
2019-06-26T07:47:43.116Z,23.80
2019-06-26T07:50:08.345Z,23.80
2019-06-26T07:52:37.729Z,23.90
2019-06-26T07:55:26.411Z,24.10
2019-06-26T07:57:55.771Z,24.10
2019-06-26T08:00:25.259Z,24.20
2019-06-26T08:02:54.568Z,24.40
2019-06-26T08:05:23.906Z,24.50
2019-06-26T08:07:53.197Z,24.70
2019-06-26T08:10:22.522Z,24.80
2019-06-26T08:12:53.191Z,25.10
2019-06-26T08:15:22.659Z,25.30
2019-06-26T08:18:00.461Z,25.50
2019-06-26T08:20:24.057Z,25.70
2019-06-26T08:22:53.359Z,25.90
2019-06-26T08:25:22.682Z,26.20
2019-06-26T08:27:52.007Z,26.50
2019-06-26T08:30:21.770Z,26.70
2019-06-26T08:32:51.113Z,26.90
2019-06-26T08:35:20.445Z,27.20
2019-06-26T08:37:49.856Z,27.30
2019-06-26T08:40:19.254Z,27.60
2019-06-26T08:42:48.590Z,27.70
2019-06-26T08:45:18.978Z,27.90
2019-06-26T08:47:48.284Z,28.20
2019-06-26T08:50:18.216Z,28.30
2019-06-26T08:52:47.568Z,28.50
2019-06-26T08:55:17.139Z,28.70
2019-06-26T08:57:46.477Z,28.80
2019-06-26T09:00:16.516Z,29.00
2019-06-26T09:02:45.834Z,29.00
2019-06-26T09:05:15.503Z,29.10
2019-06-26T09:07:44.831Z,29.10
2019-06-26T09:10:14.594Z,29.20
2019-06-26T09:12:43.929Z,29.20
2019-06-26T09:15:13.454Z,29.20
2019-06-26T09:17:42.747Z,29.30
2019-06-26T09:20:12.600Z,29.30
2019-06-26T09:22:41.896Z,29.40
2019-06-26T09:25:21.594Z,29.50
2019-06-26T09:27:43.333Z,29.60
2019-06-26T09:30:13.363Z,29.70
2019-06-26T09:32:42.665Z,29.80
2019-06-26T09:35:12.442Z,29.90
2019-06-26T09:37:41.748Z,30.00
2019-06-26T09:40:11.329Z,30.00
2019-06-26T09:42:40.644Z,30.20
2019-06-26T09:45:10.324Z,30.20
2019-06-26T09:47:39.619Z,30.20
2019-06-26T09:50:09.374Z,30.30
2019-06-26T09:52:38.665Z,30.20
2019-06-26T09:55:08.415Z,30.40
2019-06-26T09:57:38.879Z,30.30
2019-06-26T10:00:10.598Z,30.30
2019-06-26T10:02:40.081Z,30.40
2019-06-26T10:05:09.978Z,30.50
2019-06-26T10:07:40.284Z,30.60
2019-06-26T10:10:09.903Z,30.60
2019-06-26T10:12:39.216Z,30.60
2019-06-26T10:15:09.781Z,30.60
2019-06-26T10:17:39.231Z,30.70
2019-06-26T10:20:09.896Z,30.80
2019-06-26T10:22:39.184Z,30.80
2019-06-26T10:25:11.505Z,30.80
2019-06-26T10:27:40.474Z,30.80
2019-06-26T10:30:11.267Z,30.80
2019-06-26T10:32:40.567Z,30.90
2019-06-26T10:35:10.139Z,30.80
2019-06-26T10:37:39.511Z,30.90
2019-06-26T10:40:09.734Z,31.00
2019-06-26T10:42:39.071Z,31.10
2019-06-26T10:45:09.698Z,31.10
2019-06-26T10:47:40.024Z,31.00
2019-06-26T10:50:10.036Z,31.00
2019-06-26T10:52:43.106Z,30.80
2019-06-26T10:55:14.494Z,30.80
2019-06-26T10:57:43.781Z,30.80
2019-06-26T11:00:13.941Z,30.80
2019-06-26T11:02:43.237Z,30.80
2019-06-26T11:05:12.995Z,30.90
2019-06-26T11:07:42.362Z,31.00
2019-06-26T11:10:12.136Z,31.00
2019-06-26T11:12:41.446Z,30.80
2019-06-26T11:15:12.305Z,30.80
2019-06-26T11:17:41.596Z,30.90
2019-06-26T11:20:13.153Z,31.00
2019-06-26T11:22:42.493Z,31.10
2019-06-26T11:25:12.186Z,31.20
2019-06-26T11:27:41.547Z,31.30
2019-06-26T11:30:12.020Z,31.20
2019-06-26T11:32:41.366Z,31.20
2019-06-26T11:35:11.867Z,31.20
2019-06-26T11:37:41.308Z,31.20
2019-06-26T11:40:11.062Z,31.20
2019-06-26T11:42:40.388Z,31.10
2019-06-26T11:45:10.553Z,31.00
2019-06-26T11:47:39.900Z,30.90
2019-06-26T11:50:10.344Z,30.80
2019-06-26T11:52:39.663Z,30.70
2019-06-26T11:55:10.970Z,30.60
2019-06-26T11:57:40.439Z,30.80
2019-06-26T12:00:18.306Z,30.80
2019-06-26T12:02:47.644Z,30.90
2019-06-26T12:05:17.572Z,30.70
2019-06-26T12:07:46.892Z,30.60
2019-06-26T12:10:17.622Z,30.40
2019-06-26T12:12:47.918Z,30.30
2019-06-26T12:15:18.699Z,30.10
2019-06-26T12:17:48.013Z,30.20
2019-06-26T12:20:19.822Z,30.20
2019-06-26T12:22:48.852Z,30.20
2019-06-26T12:25:18.224Z,30.10
2019-06-26T12:27:47.545Z,30.00
2019-06-26T12:30:16.973Z,30.00
2019-06-26T12:33:01.573Z,29.90
2019-06-26T12:35:17.434Z,29.90
2019-06-26T12:37:46.712Z,30.00
2019-06-26T12:40:16.718Z,29.90
2019-06-26T12:42:46.026Z,29.90
2019-06-26T12:45:15.977Z,29.80
2019-06-26T12:47:45.336Z,29.70
2019-06-26T12:50:20.772Z,29.70
2019-06-26T12:52:47.815Z,29.50
2019-06-26T12:55:17.177Z,29.50
2019-06-26T12:57:46.567Z,29.40
2019-06-26T13:00:16.466Z,29.40
2019-06-26T13:02:45.788Z,29.50
2019-06-26T13:05:16.024Z,29.50
2019-06-26T13:07:45.325Z,29.50
2019-06-26T13:10:14.966Z,29.40
2019-06-26T13:12:45.934Z,29.20
2019-06-26T13:15:15.517Z,29.20
2019-06-26T13:17:44.849Z,29.20
2019-06-26T13:20:16.634Z,29.10
2019-06-26T13:22:46.076Z,29.20
2019-06-26T13:25:16.252Z,29.20
2019-06-26T13:27:45.761Z,29.10
2019-06-26T13:30:16.782Z,29.00
2019-06-26T13:32:46.123Z,29.00
2019-06-26T13:35:15.707Z,28.90
2019-06-26T13:37:45.003Z,28.90
2019-06-26T13:40:14.319Z,28.80
2019-06-26T13:42:43.616Z,28.80
2019-06-26T13:45:13.009Z,28.80
2019-06-26T13:47:42.367Z,28.70
2019-06-26T13:50:12.004Z,28.60
2019-06-26T13:52:41.339Z,28.60
2019-06-26T13:55:11.026Z,28.50
2019-06-26T13:57:40.340Z,28.50
2019-06-26T14:00:11.602Z,28.50
2019-06-26T14:02:40.919Z,28.40
2019-06-26T14:05:11.654Z,28.40
2019-06-26T14:07:40.962Z,28.30
2019-06-26T14:10:11.539Z,28.20
2019-06-26T14:12:40.830Z,28.10
2019-06-26T14:15:14.291Z,28.10
2019-06-26T14:17:43.639Z,28.10
2019-06-26T14:20:13.516Z,28.10
2019-06-26T14:22:42.828Z,28.10
2019-06-26T14:25:13.287Z,28.10
2019-06-26T14:27:42.685Z,28.10
2019-06-26T14:30:12.686Z,28.00
2019-06-26T14:32:41.998Z,27.90
2019-06-26T14:35:11.464Z,27.90
2019-06-26T14:37:40.762Z,27.90
2019-06-26T14:40:10.730Z,27.90
2019-06-26T14:42:40.043Z,27.80
2019-06-26T14:45:11.630Z,27.70
2019-06-26T14:47:41.036Z,27.70
2019-06-26T14:50:11.784Z,27.80
2019-06-26T14:52:41.113Z,27.80
2019-06-26T14:55:10.917Z,27.70
2019-06-26T14:57:40.431Z,27.70
2019-06-26T15:00:11.822Z,27.60
2019-06-26T15:02:41.151Z,27.60
2019-06-26T15:05:10.887Z,27.50
2019-06-26T15:07:40.198Z,27.50
2019-06-26T15:10:10.056Z,27.50
2019-06-26T15:12:39.367Z,27.50
2019-06-26T15:15:09.219Z,27.60
2019-06-26T15:17:38.550Z,27.70
2019-06-26T15:20:09.365Z,27.60
2019-06-26T15:22:38.692Z,27.60
2019-06-26T15:25:08.544Z,27.60
2019-06-26T15:27:37.864Z,27.50
2019-06-26T15:30:08.172Z,27.30
2019-06-26T15:32:37.607Z,27.30
2019-06-26T15:35:07.663Z,27.30
2019-06-26T15:37:37.079Z,27.20
2019-06-26T15:40:07.309Z,27.30
2019-06-26T15:42:37.552Z,27.20
2019-06-26T15:45:07.756Z,27.10
2019-06-26T15:47:37.087Z,27.00
2019-06-26T15:50:10.676Z,27.00
2019-06-26T15:52:38.635Z,27.00
2019-06-26T15:55:09.170Z,26.90
2019-06-26T15:57:38.471Z,27.00
2019-06-26T16:00:08.466Z,26.90
2019-06-26T16:02:37.829Z,26.80
2019-06-26T16:05:08.860Z,26.80
2019-06-26T16:07:38.152Z,26.70
2019-06-26T16:10:08.011Z,26.70
2019-06-26T16:12:37.459Z,26.70
2019-06-26T16:15:07.287Z,26.70
2019-06-26T16:17:54.713Z,26.70
2019-06-26T16:20:24.027Z,26.70
2019-06-26T16:22:53.359Z,26.70
2019-06-26T16:25:22.694Z,26.70
2019-06-26T16:28:04.588Z,26.60
2019-06-26T16:30:23.144Z,26.50
2019-06-26T16:32:52.459Z,26.50
2019-06-26T16:35:21.770Z,26.50
2019-06-26T16:37:51.152Z,26.40
2019-06-26T16:40:20.481Z,26.40
2019-06-26T16:42:49.875Z,26.30
2019-06-26T16:45:20.977Z,26.40
2019-06-26T16:47:50.308Z,26.30
2019-06-26T16:50:19.639Z,26.30
2019-06-26T16:52:50.129Z,26.20
2019-06-26T16:55:19.732Z,26.20
2019-06-26T16:57:49.428Z,26.10
2019-06-26T17:00:19.183Z,26.00
2019-06-26T17:02:48.567Z,25.90
2019-06-26T17:05:17.901Z,25.80
2019-06-26T17:07:47.296Z,25.80
2019-06-26T17:10:16.846Z,25.70
2019-06-26T17:12:46.137Z,25.70
2019-06-26T17:15:15.702Z,25.60
2019-06-26T17:17:45.390Z,25.50
2019-06-26T17:20:15.129Z,25.50
2019-06-26T17:22:44.439Z,25.40
2019-06-26T17:25:14.274Z,25.30
2019-06-26T17:27:44.136Z,25.30
2019-06-26T17:30:13.704Z,25.30
2019-06-26T17:32:43.007Z,25.20
2019-06-26T17:35:12.568Z,25.10
2019-06-26T17:37:41.970Z,25.00
2019-06-26T17:40:11.371Z,25.00
2019-06-26T17:42:40.695Z,24.80
2019-06-26T17:45:10.169Z,24.70
2019-06-26T17:47:39.475Z,24.60
2019-06-26T17:50:09.209Z,24.50
2019-06-26T17:52:38.818Z,24.50
2019-06-26T17:55:08.764Z,24.40
2019-06-26T17:57:51.531Z,24.40
2019-06-26T18:00:23.965Z,24.30
2019-06-26T18:02:53.357Z,24.30
2019-06-26T18:05:22.658Z,24.20
2019-06-26T18:07:51.955Z,24.10
2019-06-26T18:10:21.268Z,24.10
2019-06-26T18:12:50.565Z,24.00
2019-06-26T18:15:20.080Z,23.90
2019-06-26T18:17:49.374Z,23.80
2019-06-26T18:20:18.891Z,23.80
2019-06-26T18:22:48.211Z,23.80
2019-06-26T18:25:17.591Z,23.60
2019-06-26T18:27:46.936Z,23.60
2019-06-26T18:30:16.464Z,23.40
2019-06-26T18:32:45.827Z,23.30
2019-06-26T18:35:15.887Z,23.20
2019-06-26T18:37:45.195Z,23.20
2019-06-26T18:40:15.468Z,23.10
2019-06-26T18:42:45.973Z,23.00
2019-06-26T18:45:15.643Z,23.00
2019-06-26T18:47:45.019Z,22.80
2019-06-26T18:50:14.572Z,22.80
2019-06-26T18:52:43.939Z,22.60
2019-06-26T18:55:13.317Z,22.60
2019-06-26T18:57:42.654Z,22.60
2019-06-26T19:00:12.621Z,22.60
2019-06-26T19:02:41.907Z,22.50
2019-06-26T19:05:15.718Z,22.40
2019-06-26T19:07:45.068Z,22.30
2019-06-26T19:10:15.408Z,22.20
2019-06-26T19:12:44.699Z,22.10
2019-06-26T19:15:14.964Z,22.00
2019-06-26T19:17:44.369Z,21.80
2019-06-26T19:20:14.211Z,21.70
2019-06-26T19:22:46.580Z,21.60
2019-06-26T19:25:15.130Z,21.60
2019-06-26T19:27:44.422Z,21.50
2019-06-26T19:30:15.679Z,21.50
2019-06-26T19:32:44.996Z,21.40
2019-06-26T19:35:21.347Z,21.30
2019-06-26T19:37:45.322Z,21.10
2019-06-26T19:40:15.355Z,20.90
2019-06-26T19:42:44.668Z,20.80
2019-06-26T19:45:14.903Z,20.80
2019-06-26T19:47:44.219Z,20.70
2019-06-26T19:50:13.896Z,20.60
2019-06-26T19:52:43.208Z,20.70
2019-06-26T19:55:12.789Z,20.60
2019-06-26T19:57:42.072Z,20.40
2019-06-26T20:00:12.326Z,20.30
2019-06-26T20:02:41.629Z,20.10
2019-06-26T20:05:11.118Z,20.00
2019-06-26T20:07:40.543Z,19.90
2019-06-26T20:10:10.675Z,19.70
2019-06-26T20:12:40.013Z,19.70
2019-06-26T20:15:10.642Z,19.60
2019-06-26T20:17:39.991Z,19.60
2019-06-26T20:20:09.216Z,19.60
2019-06-26T20:22:38.686Z,19.50
2019-06-26T20:25:09.690Z,19.50
2019-06-26T20:27:39.012Z,19.40
2019-06-26T20:30:10.198Z,19.40
2019-06-26T20:32:40.742Z,19.30
2019-06-26T20:35:10.147Z,19.20
2019-06-26T20:37:39.454Z,19.10
2019-06-26T20:40:09.265Z,19.10
2019-06-26T20:42:38.576Z,19.00
2019-06-26T20:45:09.679Z,19.00
2019-06-26T20:47:39.000Z,19.00
2019-06-26T20:50:08.386Z,19.00
2019-06-26T20:52:37.743Z,18.90
2019-06-26T20:55:08.411Z,18.70
2019-06-26T20:57:37.771Z,18.60
2019-06-26T21:00:09.462Z,18.60
2019-06-26T21:02:42.222Z,18.60
2019-06-26T21:05:11.802Z,18.50
2019-06-26T21:07:41.219Z,18.50
2019-06-26T21:10:11.055Z,18.50
2019-06-26T21:12:40.366Z,18.40
2019-06-26T21:15:10.406Z,18.40
2019-06-26T21:17:39.718Z,18.30
2019-06-26T21:20:09.517Z,18.40
2019-06-26T21:22:38.807Z,18.30
2019-06-26T21:25:19.022Z,18.40
2019-06-26T21:27:43.411Z,18.30
2019-06-26T21:30:12.987Z,18.30
2019-06-26T21:32:42.290Z,18.20
2019-06-26T21:35:11.743Z,18.20
2019-06-26T21:37:41.046Z,18.20
2019-06-26T21:40:10.707Z,18.20
2019-06-26T21:42:40.016Z,18.20
2019-06-26T21:45:09.616Z,18.20
2019-06-26T21:47:39.068Z,18.10
2019-06-26T21:50:08.662Z,18.10
2019-06-26T21:52:37.999Z,18.00
2019-06-26T21:55:08.027Z,18.00
2019-06-26T21:57:55.091Z,17.90
2019-06-26T22:00:42.256Z,17.90
2019-06-26T22:03:30.589Z,17.90
2019-06-26T22:06:18.116Z,17.90
2019-06-26T22:09:08.255Z,17.90
2019-06-26T22:11:39.185Z,17.90
2019-06-26T22:14:08.889Z,17.90
2019-06-26T22:16:38.199Z,17.80
2019-06-26T22:19:07.514Z,17.80
2019-06-26T22:21:36.827Z,17.80
2019-06-26T22:24:06.137Z,17.80
2019-06-26T22:26:35.447Z,17.80
2019-06-26T22:29:05.015Z,17.80
2019-06-26T22:31:34.332Z,17.80
2019-06-26T22:34:03.663Z,17.80
2019-06-26T22:36:32.976Z,17.80
2019-06-26T22:39:02.275Z,17.80
2019-06-26T22:41:33.208Z,17.70
2019-06-26T22:44:02.543Z,17.80
2019-06-26T22:46:31.831Z,17.70
2019-06-26T22:49:01.147Z,17.70
2019-06-26T22:51:30.451Z,17.70
2019-06-26T22:53:59.748Z,17.70
2019-06-26T22:56:29.092Z,17.70
2019-06-26T22:58:58.377Z,17.70
2019-06-26T23:01:27.691Z,17.70
2019-06-26T23:03:57.000Z,17.70
2019-06-26T23:06:26.327Z,17.70
2019-06-26T23:08:55.627Z,17.80
2019-06-26T23:11:24.943Z,17.70
2019-06-26T23:13:54.264Z,17.70
2019-06-26T23:16:23.551Z,17.70
2019-06-26T23:18:53.240Z,17.70
2019-06-26T23:21:22.574Z,17.70
2019-06-26T23:23:51.887Z,17.60
2019-06-26T23:26:24.340Z,17.50
2019-06-26T23:28:52.189Z,17.40
2019-06-26T23:31:21.495Z,17.40
2019-06-26T23:33:50.824Z,17.30
2019-06-26T23:36:20.114Z,17.30
2019-06-26T23:38:49.414Z,17.30
2019-06-26T23:41:18.729Z,17.30
2019-06-26T23:43:48.024Z,17.30
2019-06-26T23:46:17.498Z,17.30
2019-06-26T23:48:46.815Z,17.40
2019-06-26T23:51:16.116Z,17.30
2019-06-26T23:53:45.422Z,17.30
2019-06-26T23:56:14.719Z,17.30
2019-06-26T23:58:44.086Z,17.30
